createdAt,value
2022-10-06T00:00:29.667Z,999.40
2022-10-06T00:01:29.640Z,999.36
2022-10-06T00:02:29.554Z,999.34
2022-10-06T00:03:29.464Z,999.31
2022-10-06T00:04:29.407Z,999.32
2022-10-06T00:05:29.359Z,999.30
2022-10-06T00:06:29.273Z,999.37
2022-10-06T00:07:29.236Z,999.39
2022-10-06T00:08:29.544Z,999.43
2022-10-06T00:09:29.090Z,999.43
2022-10-06T00:10:29.022Z,999.42
2022-10-06T00:11:32.760Z,999.39
2022-10-06T00:12:28.912Z,999.39
2022-10-06T00:13:28.823Z,999.34
2022-10-06T00:14:28.775Z,999.37
2022-10-06T00:15:28.766Z,999.40
2022-10-06T00:16:28.662Z,999.39
2022-10-06T00:17:28.584Z,999.41
2022-10-06T00:18:28.787Z,999.43
2022-10-06T00:19:28.459Z,999.43
2022-10-06T00:20:28.433Z,999.46
2022-10-06T00:21:28.322Z,999.53
2022-10-06T00:22:28.269Z,999.53
2022-10-06T00:23:28.226Z,999.54
2022-10-06T00:24:28.131Z,999.53
2022-10-06T00:25:28.091Z,999.56
2022-10-06T00:26:27.999Z,999.60
2022-10-06T00:27:27.973Z,999.59
2022-10-06T00:28:28.339Z,999.63
2022-10-06T00:29:27.847Z,999.59
2022-10-06T00:30:27.769Z,999.67
2022-10-06T00:31:27.725Z,999.68
2022-10-06T00:32:27.640Z,999.71
2022-10-06T00:33:27.583Z,999.67
2022-10-06T00:34:27.537Z,999.68
2022-10-06T00:35:28.663Z,999.64
2022-10-06T00:36:27.381Z,999.70
2022-10-06T00:37:27.303Z,999.70
2022-10-06T00:38:27.610Z,999.67
2022-10-06T00:39:27.201Z,999.70
2022-10-06T00:40:27.088Z,999.72
2022-10-06T00:41:27.039Z,999.71
2022-10-06T00:42:26.937Z,999.73
2022-10-06T00:43:26.893Z,999.71
2022-10-06T00:44:26.833Z,999.75
2022-10-06T00:45:26.759Z,999.78
2022-10-06T00:46:26.863Z,999.75
2022-10-06T00:47:27.997Z,999.78
2022-10-06T00:48:26.966Z,999.83
2022-10-06T00:49:26.513Z,999.84
2022-10-06T00:50:26.443Z,999.81
2022-10-06T00:51:26.467Z,999.90
2022-10-06T00:52:26.371Z,999.92
2022-10-06T00:53:27.507Z,999.91
2022-10-06T00:54:26.244Z,999.93
2022-10-06T00:55:26.173Z,1000.01
2022-10-06T00:56:26.155Z,1000.07
2022-10-06T00:57:26.122Z,1000.05
2022-10-06T00:58:26.431Z,1000.01
2022-10-06T00:59:26.703Z,1000.03
2022-10-06T01:00:25.911Z,1000.04
2022-10-06T01:01:25.835Z,1000.00
2022-10-06T01:02:25.795Z,1000.07
2022-10-06T01:03:25.690Z,1000.06
2022-10-06T01:04:25.614Z,1000.04
2022-10-06T01:05:25.567Z,1000.07
2022-10-06T01:06:25.530Z,1000.05
2022-10-06T01:07:25.438Z,1000.10
2022-10-06T01:08:25.710Z,1000.06
2022-10-06T01:09:25.337Z,1000.18
2022-10-06T01:10:25.249Z,1000.16
2022-10-06T01:11:26.378Z,1000.26
2022-10-06T01:12:25.113Z,1000.23
2022-10-06T01:13:25.061Z,1000.31
2022-10-06T01:14:24.987Z,1000.35
2022-10-06T01:15:24.920Z,1000.31
2022-10-06T01:16:24.877Z,1000.49
2022-10-06T01:17:26.011Z,1000.37
2022-10-06T01:18:24.872Z,1000.47
2022-10-06T01:19:24.712Z,1000.48
2022-10-06T01:20:24.604Z,1000.53
2022-10-06T01:21:24.541Z,1000.50
2022-10-06T01:22:24.492Z,1000.50
2022-10-06T01:23:24.433Z,1000.53
2022-10-06T01:24:24.350Z,1000.46
2022-10-06T01:25:24.345Z,1000.57
2022-10-06T01:26:24.207Z,1000.61
2022-10-06T01:27:24.161Z,1000.58
2022-10-06T01:28:24.174Z,1000.61
2022-10-06T01:29:25.266Z,1000.67
2022-10-06T01:30:23.978Z,1000.71
2022-10-06T01:31:23.959Z,1000.75
2022-10-06T01:32:23.839Z,1000.73
2022-10-06T01:33:23.777Z,1000.68
2022-10-06T01:34:23.699Z,1000.78
2022-10-06T01:35:24.454Z,1000.82
2022-10-06T01:36:23.592Z,1000.88
2022-10-06T01:37:23.536Z,1000.86
2022-10-06T01:38:23.489Z,1000.96
2022-10-06T01:39:23.405Z,1000.88
2022-10-06T01:40:23.332Z,1000.87
2022-10-06T01:41:23.286Z,1000.88
2022-10-06T01:42:23.199Z,1000.85
2022-10-06T01:43:23.167Z,1000.94
2022-10-06T01:44:23.072Z,1000.97
2022-10-06T01:45:23.026Z,1000.94
2022-10-06T01:46:22.969Z,1001.01
2022-10-06T01:47:22.902Z,1001.00
2022-10-06T01:48:22.814Z,1001.05
2022-10-06T01:49:22.753Z,1001.12
2022-10-06T01:50:22.713Z,1001.08
2022-10-06T01:51:22.649Z,1001.07
2022-10-06T01:52:22.591Z,1001.04
2022-10-06T01:53:23.717Z,1001.06
2022-10-06T01:54:22.457Z,1001.10
2022-10-06T01:55:22.420Z,1001.17
2022-10-06T01:56:22.346Z,1001.19
2022-10-06T01:57:22.264Z,1001.20
2022-10-06T01:58:22.195Z,1001.27
2022-10-06T01:59:22.915Z,1001.32
2022-10-06T02:00:22.057Z,1001.32
2022-10-06T02:01:22.037Z,1001.41
2022-10-06T02:02:21.963Z,1001.49
2022-10-06T02:03:21.871Z,1001.50
2022-10-06T02:04:21.873Z,1001.51
2022-10-06T02:05:21.752Z,1001.61
2022-10-06T02:06:21.748Z,1001.69
2022-10-06T02:07:21.634Z,1001.77
2022-10-06T02:08:21.560Z,1001.82
2022-10-06T02:09:21.509Z,1001.80
2022-10-06T02:10:21.438Z,1001.78
2022-10-06T02:11:22.174Z,1001.84
2022-10-06T02:12:21.303Z,1001.96
2022-10-06T02:13:21.248Z,1001.83
2022-10-06T02:14:21.219Z,1001.90
2022-10-06T02:15:21.148Z,1001.85
2022-10-06T02:16:21.098Z,1001.91
2022-10-06T02:17:21.020Z,1001.95
2022-10-06T02:18:20.931Z,1001.86
2022-10-06T02:19:20.945Z,1001.90
2022-10-06T02:20:20.808Z,1001.92
2022-10-06T02:21:20.776Z,1001.96
2022-10-06T02:22:20.670Z,1001.95
2022-10-06T02:23:20.655Z,1001.98
2022-10-06T02:24:20.542Z,1001.95
2022-10-06T02:25:20.498Z,1001.95
2022-10-06T02:26:20.432Z,1001.96
2022-10-06T02:27:20.385Z,1001.90
2022-10-06T02:28:20.346Z,1001.95
2022-10-06T02:29:21.429Z,1001.95
2022-10-06T02:30:20.182Z,1001.95
2022-10-06T02:31:20.170Z,1001.95
2022-10-06T02:32:20.035Z,1001.99
2022-10-06T02:33:20.003Z,1001.96
2022-10-06T02:34:19.921Z,1001.94
2022-10-06T02:35:21.429Z,1002.13
2022-10-06T02:36:19.810Z,1001.97
2022-10-06T02:37:19.733Z,1002.04
2022-10-06T02:38:19.671Z,1002.02
2022-10-06T02:39:19.605Z,1002.05
2022-10-06T02:40:19.545Z,1002.10
2022-10-06T02:41:19.496Z,1002.11
2022-10-06T02:42:19.412Z,1002.07
2022-10-06T02:43:19.371Z,1002.08
2022-10-06T02:44:19.273Z,1002.04
2022-10-06T02:45:19.252Z,1002.10
2022-10-06T02:46:19.200Z,1002.17
2022-10-06T02:47:19.123Z,1002.20
2022-10-06T02:48:19.035Z,1002.28
2022-10-06T02:49:18.964Z,1002.26
2022-10-06T02:50:18.891Z,1002.28
2022-10-06T02:51:18.828Z,1002.17
2022-10-06T02:52:18.784Z,1002.16
2022-10-06T02:53:18.737Z,1002.25
2022-10-06T02:54:18.636Z,1002.30
2022-10-06T02:55:18.572Z,1002.30
2022-10-06T02:56:18.523Z,1002.31
2022-10-06T02:57:18.454Z,1002.31
2022-10-06T02:58:18.381Z,1002.31
2022-10-06T02:59:21.654Z,1002.37
2022-10-06T03:00:18.277Z,1002.30
2022-10-06T03:01:18.298Z,1002.26
2022-10-06T03:02:18.248Z,1002.35
2022-10-06T03:03:18.123Z,1002.42
2022-10-06T03:04:18.016Z,1002.41
2022-10-06T03:05:17.970Z,1002.43
2022-10-06T03:06:17.881Z,1002.42
2022-10-06T03:07:17.815Z,1002.44
2022-10-06T03:08:17.768Z,1002.59
2022-10-06T03:09:17.688Z,1002.59
2022-10-06T03:10:17.639Z,1002.58
2022-10-06T03:11:18.466Z,1002.63
2022-10-06T03:12:17.520Z,1002.63
2022-10-06T03:13:17.471Z,1002.60
2022-10-06T03:14:21.607Z,1002.67
2022-10-06T03:15:17.318Z,1002.65
2022-10-06T03:16:17.339Z,1002.58
2022-10-06T03:17:17.212Z,1002.62
2022-10-06T03:18:17.125Z,1002.64
2022-10-06T03:19:17.066Z,1002.64
2022-10-06T03:20:17.005Z,1002.72
2022-10-06T03:21:16.931Z,1002.72
2022-10-06T03:22:16.865Z,1002.71
2022-10-06T03:23:16.814Z,1002.70
2022-10-06T03:24:16.752Z,1002.75
2022-10-06T03:25:16.674Z,1002.69
2022-10-06T03:26:16.621Z,1002.74
2022-10-06T03:27:16.556Z,1002.81
2022-10-06T03:28:16.544Z,1002.82
2022-10-06T03:29:16.456Z,1002.74
2022-10-06T03:30:16.353Z,1002.76
2022-10-06T03:31:16.396Z,1002.83
2022-10-06T03:32:16.230Z,1002.89
2022-10-06T03:33:16.180Z,1002.96
2022-10-06T03:34:16.098Z,1003.03
2022-10-06T03:35:16.069Z,1003.13
2022-10-06T03:36:15.972Z,1003.12
2022-10-06T03:37:15.916Z,1003.18
2022-10-06T03:38:15.863Z,1003.16
2022-10-06T03:39:15.800Z,1003.16
2022-10-06T03:40:15.675Z,1003.15
2022-10-06T03:41:17.199Z,1003.18
2022-10-06T03:42:15.603Z,1003.24
2022-10-06T03:43:15.545Z,1003.24
2022-10-06T03:44:15.467Z,1003.28
2022-10-06T03:45:15.418Z,1003.27
2022-10-06T03:46:15.410Z,1003.30
2022-10-06T03:47:17.452Z,1003.33
2022-10-06T03:48:15.211Z,1003.37
2022-10-06T03:49:15.160Z,1003.33
2022-10-06T03:50:15.100Z,1003.34
2022-10-06T03:51:15.016Z,1003.49
2022-10-06T03:52:14.960Z,1003.53
2022-10-06T03:53:15.677Z,1003.49
2022-10-06T03:54:14.831Z,1003.58
2022-10-06T03:55:14.783Z,1003.58
2022-10-06T03:56:14.704Z,1003.62
2022-10-06T03:57:14.639Z,1003.67
2022-10-06T03:58:14.588Z,1003.67
2022-10-06T03:59:14.537Z,1003.71
2022-10-06T04:00:14.469Z,1003.67
2022-10-06T04:01:14.456Z,1003.73
2022-10-06T04:02:14.364Z,1003.81
2022-10-06T04:03:14.275Z,1003.83
2022-10-06T04:04:14.206Z,1003.83
2022-10-06T04:05:14.173Z,1003.84
2022-10-06T04:06:14.063Z,1003.92
2022-10-06T04:07:14.005Z,1003.89
2022-10-06T04:08:13.946Z,1003.90
2022-10-06T04:09:15.709Z,1003.97
2022-10-06T04:10:13.828Z,1003.98
2022-10-06T04:11:16.819Z,1004.01
2022-10-06T04:12:13.690Z,1003.99
2022-10-06T04:13:13.621Z,1004.11
2022-10-06T04:14:13.573Z,1004.08
2022-10-06T04:15:13.527Z,1004.14
2022-10-06T04:16:13.491Z,1004.09
2022-10-06T04:17:13.403Z,1004.21
2022-10-06T04:18:13.310Z,1004.22
2022-10-06T04:19:13.253Z,1004.24
2022-10-06T04:20:13.195Z,1004.22
2022-10-06T04:21:13.132Z,1004.30
2022-10-06T04:22:13.067Z,1004.29
2022-10-06T04:23:13.017Z,1004.27
2022-10-06T04:24:12.939Z,1004.28
2022-10-06T04:25:12.882Z,1004.38
2022-10-06T04:26:12.822Z,1004.43
2022-10-06T04:27:12.755Z,1004.44
2022-10-06T04:28:12.735Z,1004.45
2022-10-06T04:29:15.059Z,1004.47
2022-10-06T04:30:12.514Z,1004.50
2022-10-06T04:31:12.513Z,1004.49
2022-10-06T04:32:12.425Z,1004.52
2022-10-06T04:33:12.369Z,1004.51
2022-10-06T04:34:12.286Z,1004.44
2022-10-06T04:35:12.243Z,1004.51
2022-10-06T04:36:12.169Z,1004.50
2022-10-06T04:37:12.098Z,1004.46
2022-10-06T04:38:12.030Z,1004.49
2022-10-06T04:39:11.976Z,1004.53
2022-10-06T04:40:11.923Z,1004.51
2022-10-06T04:41:11.866Z,1004.55
2022-10-06T04:42:11.795Z,1004.59
2022-10-06T04:43:11.737Z,1004.61
2022-10-06T04:44:11.653Z,1004.67
2022-10-06T04:45:11.598Z,1004.67
2022-10-06T04:46:37.661Z,1004.67
2022-10-06T04:47:12.673Z,1004.72
2022-10-06T04:48:11.393Z,1004.71
2022-10-06T04:49:16.203Z,1004.76
2022-10-06T04:50:11.284Z,1004.72
2022-10-06T04:51:11.219Z,1004.77
2022-10-06T04:52:11.142Z,1004.78
2022-10-06T04:53:11.881Z,1004.68
2022-10-06T04:54:11.039Z,1004.72
2022-10-06T04:55:10.968Z,1004.69
2022-10-06T04:56:10.881Z,1004.70
2022-10-06T04:57:10.840Z,1004.77
2022-10-06T04:58:10.770Z,1004.80
2022-10-06T04:59:10.665Z,1004.88
2022-10-06T05:00:14.713Z,1004.92
2022-10-06T05:01:10.596Z,1004.91
2022-10-06T05:02:10.541Z,1004.96
2022-10-06T05:03:10.395Z,1004.97
2022-10-06T05:04:10.318Z,1004.97
2022-10-06T05:05:10.297Z,1004.97
2022-10-06T05:06:10.229Z,1005.02
2022-10-06T05:07:10.185Z,1005.05
2022-10-06T05:08:10.095Z,1005.07
2022-10-06T05:09:10.018Z,1005.14
2022-10-06T05:10:09.955Z,1005.13
2022-10-06T05:11:15.031Z,1005.18
2022-10-06T05:12:09.831Z,1005.19
2022-10-06T05:13:09.747Z,1005.17
2022-10-06T05:14:09.703Z,1005.24
2022-10-06T05:15:09.616Z,1005.17
2022-10-06T05:16:09.620Z,1005.21
2022-10-06T05:17:13.295Z,1005.27
2022-10-06T05:18:09.423Z,1005.30
2022-10-06T05:19:09.363Z,1005.36
2022-10-06T05:20:09.296Z,1005.38
2022-10-06T05:21:09.232Z,1005.35
2022-10-06T05:22:09.181Z,1005.39
2022-10-06T05:23:09.136Z,1005.40
2022-10-06T05:24:09.055Z,1005.43
2022-10-06T05:25:08.994Z,1005.42
2022-10-06T05:26:08.930Z,1005.43
2022-10-06T05:27:08.849Z,1005.46
2022-10-06T05:28:08.849Z,1005.45
2022-10-06T05:29:08.744Z,1005.50
2022-10-06T05:30:08.661Z,1005.47
2022-10-06T05:31:08.641Z,1005.48
2022-10-06T05:32:08.610Z,1005.46
2022-10-06T05:33:08.473Z,1005.47
2022-10-06T05:34:08.419Z,1005.50
2022-10-06T05:35:10.718Z,1005.51
2022-10-06T05:36:08.292Z,1005.50
2022-10-06T05:37:08.220Z,1005.50
2022-10-06T05:38:08.161Z,1005.57
2022-10-06T05:39:08.099Z,1005.60
2022-10-06T05:40:08.029Z,1005.55
2022-10-06T05:41:07.990Z,1005.62
2022-10-06T05:42:07.896Z,1005.65
2022-10-06T05:43:07.843Z,1005.66
2022-10-06T05:44:07.782Z,1005.69
2022-10-06T05:45:07.721Z,1005.72
2022-10-06T05:46:07.818Z,1005.78
2022-10-06T05:47:07.614Z,1005.69
2022-10-06T05:48:07.535Z,1005.72
2022-10-06T05:49:07.449Z,1005.75
2022-10-06T05:50:07.383Z,1005.75
2022-10-06T05:51:07.323Z,1005.72
2022-10-06T05:52:07.276Z,1005.82
2022-10-06T05:53:08.806Z,1005.83
2022-10-06T05:54:07.132Z,1005.86
2022-10-06T05:55:07.071Z,1005.83
2022-10-06T05:56:07.011Z,1005.89
2022-10-06T05:57:06.956Z,1005.88
2022-10-06T05:58:06.891Z,1005.95
2022-10-06T05:59:07.053Z,1005.97
2022-10-06T06:00:06.761Z,1005.98
2022-10-06T06:01:06.690Z,1006.01
2022-10-06T06:02:06.744Z,1006.00
2022-10-06T06:03:06.666Z,1006.05
2022-10-06T06:04:06.527Z,1006.01
2022-10-06T06:05:06.436Z,1006.06
2022-10-06T06:06:06.365Z,1006.01
2022-10-06T06:07:06.303Z,1006.02
2022-10-06T06:08:06.234Z,1006.03
2022-10-06T06:09:06.178Z,1006.04
2022-10-06T06:10:06.121Z,1006.06
2022-10-06T06:11:08.443Z,1006.06
2022-10-06T06:12:06.015Z,1006.10
2022-10-06T06:13:05.916Z,1006.10
2022-10-06T06:14:05.854Z,1006.10
2022-10-06T06:15:05.789Z,1006.08
2022-10-06T06:16:05.737Z,1006.15
2022-10-06T06:17:05.673Z,1006.14
2022-10-06T06:18:05.740Z,1006.16
2022-10-06T06:19:05.534Z,1006.21
2022-10-06T06:20:05.481Z,1006.20
2022-10-06T06:21:05.406Z,1006.20
2022-10-06T06:22:05.352Z,1006.21
2022-10-06T06:23:05.323Z,1006.23
2022-10-06T06:24:05.232Z,1006.25
2022-10-06T06:25:05.146Z,1006.28
2022-10-06T06:26:05.087Z,1006.31
2022-10-06T06:27:05.042Z,1006.32
2022-10-06T06:28:04.971Z,1006.36
2022-10-06T06:29:06.117Z,1006.39
2022-10-06T06:30:04.830Z,1006.41
2022-10-06T06:31:04.822Z,1006.39
2022-10-06T06:32:04.700Z,1006.37
2022-10-06T06:33:04.634Z,1006.41
2022-10-06T06:34:04.595Z,1006.45
2022-10-06T06:35:05.334Z,1006.49
2022-10-06T06:36:04.460Z,1006.45
2022-10-06T06:37:08.372Z,1006.46
2022-10-06T06:38:04.364Z,1006.50
2022-10-06T06:39:04.255Z,1006.53
2022-10-06T06:40:04.201Z,1006.58
2022-10-06T06:41:04.146Z,1006.57
2022-10-06T06:42:04.078Z,1006.59
2022-10-06T06:43:04.031Z,1006.58
2022-10-06T06:44:03.939Z,1006.62
2022-10-06T06:45:03.873Z,1006.66
2022-10-06T06:46:03.921Z,1006.65
2022-10-06T06:47:03.776Z,1006.70
2022-10-06T06:48:03.683Z,1006.65
2022-10-06T06:49:03.615Z,1006.74
2022-10-06T06:50:03.557Z,1006.75
2022-10-06T06:51:03.501Z,1006.72
2022-10-06T06:52:03.442Z,1006.73
2022-10-06T06:53:03.413Z,1006.75
2022-10-06T06:54:03.304Z,1006.77
2022-10-06T06:55:03.253Z,1006.82
2022-10-06T06:56:03.200Z,1006.80
2022-10-06T06:57:03.121Z,1006.81
2022-10-06T06:58:03.171Z,1006.84
2022-10-06T06:59:04.206Z,1006.90
2022-10-06T07:00:02.922Z,1006.84
2022-10-06T07:01:02.985Z,1006.82
2022-10-06T07:02:02.879Z,1006.87
2022-10-06T07:03:02.754Z,1006.87
2022-10-06T07:04:02.676Z,1006.91
2022-10-06T07:05:02.643Z,1006.91
2022-10-06T07:06:02.551Z,1006.93
2022-10-06T07:07:02.493Z,1006.96
2022-10-06T07:08:02.420Z,1006.94
2022-10-06T07:09:02.354Z,1006.93
2022-10-06T07:10:02.326Z,1006.93
2022-10-06T07:11:02.299Z,1007.00
2022-10-06T07:12:02.170Z,1007.04
2022-10-06T07:13:02.146Z,1007.02
2022-10-06T07:14:02.062Z,1007.11
2022-10-06T07:15:01.994Z,1007.09
2022-10-06T07:16:01.976Z,1007.14
2022-10-06T07:17:04.252Z,1007.13
2022-10-06T07:18:01.815Z,1007.13
2022-10-06T07:19:01.727Z,1007.13
2022-10-06T07:20:01.676Z,1007.12
2022-10-06T07:21:03.203Z,1007.13
2022-10-06T07:22:01.532Z,1007.17
2022-10-06T07:23:01.523Z,1007.19
2022-10-06T07:24:01.424Z,1007.24
2022-10-06T07:25:01.352Z,1007.32
2022-10-06T07:26:01.289Z,1007.31
2022-10-06T07:27:01.223Z,1007.32
2022-10-06T07:28:01.194Z,1007.27
2022-10-06T07:29:01.122Z,1007.33
2022-10-06T07:30:01.073Z,1007.35
2022-10-06T07:31:01.046Z,1007.34
2022-10-06T07:32:00.915Z,1007.37
2022-10-06T07:33:00.843Z,1007.45
2022-10-06T07:34:01.050Z,1007.45
2022-10-06T07:35:03.095Z,1007.45
2022-10-06T07:36:00.674Z,1007.45
2022-10-06T07:37:04.127Z,1007.48
2022-10-06T07:38:00.548Z,1007.48
2022-10-06T07:39:00.531Z,1007.45
2022-10-06T07:40:00.451Z,1007.51
2022-10-06T07:41:18.891Z,1007.47
2022-10-06T07:42:00.295Z,1007.49
2022-10-06T07:43:00.234Z,1007.52
2022-10-06T07:44:02.464Z,1007.53
2022-10-06T07:45:00.117Z,1007.56
2022-10-06T07:46:00.067Z,1007.59
2022-10-06T07:47:00.004Z,1007.60
2022-10-06T07:47:59.922Z,1007.66
2022-10-06T07:48:59.876Z,1007.64
2022-10-06T07:49:59.816Z,1007.73
2022-10-06T07:50:59.718Z,1007.71
2022-10-06T07:51:59.670Z,1007.70
2022-10-06T07:53:00.404Z,1007.72
2022-10-06T07:53:59.542Z,1007.70
2022-10-06T07:54:59.498Z,1007.72
2022-10-06T07:55:59.413Z,1007.72
2022-10-06T07:56:59.353Z,1007.71
2022-10-06T07:57:59.290Z,1007.73
2022-10-06T07:58:59.244Z,1007.70
2022-10-06T08:00:02.865Z,1007.69
2022-10-06T08:00:59.098Z,1007.73
2022-10-06T08:01:59.100Z,1007.69
2022-10-06T08:02:59.036Z,1007.73
2022-10-06T08:03:58.922Z,1007.78
2022-10-06T08:05:00.081Z,1007.77
2022-10-06T08:05:58.784Z,1007.81
2022-10-06T08:06:58.731Z,1007.79
2022-10-06T08:07:58.665Z,1007.85
2022-10-06T08:08:58.584Z,1007.78
2022-10-06T08:09:58.544Z,1007.86
2022-10-06T08:11:01.626Z,1007.79
2022-10-06T08:11:58.388Z,1007.81
2022-10-06T08:12:58.352Z,1007.90
2022-10-06T08:13:58.273Z,1007.83
2022-10-06T08:15:00.679Z,1007.87
2022-10-06T08:15:58.264Z,1007.90
2022-10-06T08:16:58.129Z,1007.90
2022-10-06T08:17:58.030Z,1007.99
2022-10-06T08:18:57.977Z,1007.94
2022-10-06T08:19:57.932Z,1008.02
2022-10-06T08:20:57.841Z,1007.97
2022-10-06T08:22:01.028Z,1008.08
2022-10-06T08:22:58.933Z,1008.06
2022-10-06T08:23:57.634Z,1008.11
2022-10-06T08:25:05.678Z,1008.09
2022-10-06T08:25:57.546Z,1008.10
2022-10-06T08:26:57.457Z,1008.18
2022-10-06T08:27:57.468Z,1008.25
2022-10-06T08:28:57.728Z,1008.18
2022-10-06T08:29:57.279Z,1008.18
2022-10-06T08:30:57.225Z,1008.15
2022-10-06T08:31:57.203Z,1008.14
2022-10-06T08:32:57.073Z,1008.18
2022-10-06T08:33:57.021Z,1008.23
2022-10-06T08:34:57.658Z,1008.23
2022-10-06T08:35:56.880Z,1008.26
2022-10-06T08:37:15.879Z,1008.26
2022-10-06T08:37:56.770Z,1008.21
2022-10-06T08:38:56.687Z,1008.26
2022-10-06T08:39:56.691Z,1008.23
2022-10-06T08:40:57.792Z,1008.23
2022-10-06T08:41:56.500Z,1008.24
2022-10-06T08:42:56.437Z,1008.25
2022-10-06T08:43:56.382Z,1008.20
2022-10-06T08:44:56.723Z,1008.26
2022-10-06T08:45:56.268Z,1008.28
2022-10-06T08:46:56.210Z,1008.26
2022-10-06T08:47:56.127Z,1008.26
2022-10-06T08:48:56.070Z,1008.23
2022-10-06T08:49:56.456Z,1008.28
2022-10-06T08:50:55.928Z,1008.37
2022-10-06T08:51:55.881Z,1008.38
2022-10-06T08:52:55.831Z,1008.42
2022-10-06T08:53:55.747Z,1008.40
2022-10-06T08:54:55.694Z,1008.42
2022-10-06T08:55:55.633Z,1008.49
2022-10-06T08:56:55.559Z,1008.47
2022-10-06T08:57:55.526Z,1008.50
2022-10-06T08:58:56.210Z,1008.54
2022-10-06T08:59:55.690Z,1008.58
2022-10-06T09:00:55.344Z,1008.56
2022-10-06T09:01:55.361Z,1008.53
2022-10-06T09:02:55.182Z,1008.49
2022-10-06T09:03:55.119Z,1008.54
2022-10-06T09:04:55.061Z,1008.59
2022-10-06T09:05:54.997Z,1008.61
2022-10-06T09:06:54.916Z,1008.57
2022-10-06T09:07:54.854Z,1008.61
2022-10-06T09:08:54.791Z,1008.65
2022-10-06T09:09:55.343Z,1008.68
2022-10-06T09:10:54.731Z,1008.66
2022-10-06T09:11:54.606Z,1008.65
2022-10-06T09:12:54.556Z,1008.68
2022-10-06T09:13:54.634Z,1008.68
2022-10-06T09:14:54.418Z,1008.65
2022-10-06T09:15:54.450Z,1008.68
2022-10-06T09:16:55.077Z,1008.65
2022-10-06T09:17:54.229Z,1008.70
2022-10-06T09:19:08.164Z,1008.70
2022-10-06T09:19:54.384Z,1008.71
2022-10-06T09:20:54.041Z,1008.71
2022-10-06T09:21:54.047Z,1008.68
2022-10-06T09:22:54.729Z,1008.70
2022-10-06T09:23:53.873Z,1008.74
2022-10-06T09:24:53.972Z,1008.72
2022-10-06T09:25:56.282Z,1008.72
2022-10-06T09:26:53.660Z,1008.76
2022-10-06T09:27:53.613Z,1008.72
2022-10-06T09:28:54.737Z,1008.77
2022-10-06T09:29:54.484Z,1008.82
2022-10-06T09:30:55.450Z,1008.75
2022-10-06T09:31:53.396Z,1008.82
2022-10-06T09:32:53.278Z,1008.81
2022-10-06T09:33:53.215Z,1008.80
2022-10-06T09:34:53.504Z,1008.83
2022-10-06T09:35:53.109Z,1008.80
2022-10-06T09:36:54.909Z,1008.85
2022-10-06T09:37:52.963Z,1008.87
2022-10-06T09:38:52.947Z,1008.86
2022-10-06T09:39:53.313Z,1008.92
2022-10-06T09:40:52.786Z,1008.87
2022-10-06T09:41:52.712Z,1008.87
2022-10-06T09:42:52.748Z,1008.92
2022-10-06T09:43:52.595Z,1008.96
2022-10-06T09:44:52.535Z,1008.96
2022-10-06T09:45:52.494Z,1008.91
2022-10-06T09:46:52.462Z,1008.98
2022-10-06T09:47:52.351Z,1008.93
2022-10-06T09:48:52.296Z,1008.95
2022-10-06T09:49:52.211Z,1008.93
2022-10-06T09:50:52.187Z,1008.97
2022-10-06T09:51:52.098Z,1008.92
2022-10-06T09:52:52.043Z,1008.98
2022-10-06T09:53:51.979Z,1008.94
2022-10-06T09:54:51.909Z,1008.92
2022-10-06T09:55:51.839Z,1008.90
2022-10-06T09:56:51.798Z,1008.95
2022-10-06T09:57:51.734Z,1008.99
2022-10-06T09:58:51.669Z,1008.99
2022-10-06T09:59:51.577Z,1009.00
2022-10-06T10:00:51.573Z,1008.93
2022-10-06T10:01:51.464Z,1008.96
2022-10-06T10:02:51.423Z,1008.98
2022-10-06T10:04:52.086Z,1009.06
2022-10-06T10:05:51.237Z,1009.06
2022-10-06T10:06:51.136Z,1008.96
2022-10-06T10:07:51.090Z,1008.98
2022-10-06T10:08:51.025Z,1009.01
2022-10-06T10:09:50.960Z,1009.00
2022-10-06T10:10:50.896Z,1008.98
2022-10-06T10:11:50.855Z,1009.00
2022-10-06T10:12:50.775Z,1009.00
2022-10-06T10:13:50.690Z,1009.02
2022-10-06T10:14:50.621Z,1008.97
2022-10-06T10:15:50.621Z,1008.96
2022-10-06T10:16:53.498Z,1009.00
2022-10-06T10:17:50.455Z,1008.99
2022-10-06T10:18:50.376Z,1009.00
2022-10-06T10:19:50.320Z,1009.00
2022-10-06T10:20:50.244Z,1008.96
2022-10-06T10:21:50.195Z,1008.87
2022-10-06T10:22:50.169Z,1008.85
2022-10-06T10:23:50.074Z,1008.90
2022-10-06T10:24:50.012Z,1008.92
2022-10-06T10:25:49.984Z,1008.90
2022-10-06T10:26:49.924Z,1008.86
2022-10-06T10:27:49.806Z,1008.91
2022-10-06T10:28:49.772Z,1008.89
2022-10-06T10:29:49.705Z,1008.89
2022-10-06T10:30:49.643Z,1008.87
2022-10-06T10:31:49.703Z,1008.89
2022-10-06T10:32:49.499Z,1008.92
2022-10-06T10:33:59.298Z,1008.93
2022-10-06T10:34:50.146Z,1008.94
2022-10-06T10:35:49.308Z,1009.01
2022-10-06T10:36:49.271Z,1008.94
2022-10-06T10:37:49.197Z,1008.90
2022-10-06T10:38:49.135Z,1008.90
2022-10-06T10:39:49.091Z,1008.89
2022-10-06T10:40:51.201Z,1008.86
2022-10-06T10:41:48.949Z,1008.92
2022-10-06T10:42:48.870Z,1008.93
2022-10-06T10:43:48.816Z,1008.92
2022-10-06T10:44:48.745Z,1008.95
2022-10-06T10:45:48.687Z,1008.96
2022-10-06T10:46:50.350Z,1008.93
2022-10-06T10:47:48.831Z,1008.94
2022-10-06T10:48:48.498Z,1008.91
2022-10-06T10:49:48.431Z,1008.98
2022-10-06T10:50:48.401Z,1008.99
2022-10-06T10:51:48.396Z,1009.00
2022-10-06T10:52:48.270Z,1009.01
2022-10-06T10:53:48.186Z,1009.00
2022-10-06T10:54:48.130Z,1008.95
2022-10-06T10:55:48.055Z,1008.95
2022-10-06T10:56:48.002Z,1008.99
2022-10-06T10:57:47.950Z,1009.02
2022-10-06T10:58:47.938Z,1008.99
2022-10-06T10:59:47.808Z,1009.02
2022-10-06T11:00:47.832Z,1008.98
2022-10-06T11:01:47.707Z,1008.98
2022-10-06T11:02:47.641Z,1008.94
2022-10-06T11:03:47.564Z,1008.91
2022-10-06T11:04:47.526Z,1008.88
2022-10-06T11:05:47.445Z,1008.91
2022-10-06T11:06:47.394Z,1008.93
2022-10-06T11:07:47.378Z,1008.94
2022-10-06T11:08:47.243Z,1008.90
2022-10-06T11:09:47.199Z,1008.93
2022-10-06T11:10:47.165Z,1008.93
2022-10-06T11:11:51.910Z,1008.97
2022-10-06T11:12:47.286Z,1008.93
2022-10-06T11:13:46.938Z,1008.94
2022-10-06T11:14:46.886Z,1008.96
2022-10-06T11:15:46.830Z,1008.94
2022-10-06T11:16:46.794Z,1008.96
2022-10-06T11:17:46.727Z,1008.97
2022-10-06T11:18:46.657Z,1008.99
2022-10-06T11:19:46.572Z,1008.98
2022-10-06T11:20:46.501Z,1008.99
2022-10-06T11:21:46.464Z,1008.95
2022-10-06T11:22:47.158Z,1008.97
2022-10-06T11:23:46.325Z,1009.00
2022-10-06T11:24:46.332Z,1009.04
2022-10-06T11:25:46.190Z,1009.01
2022-10-06T11:26:46.126Z,1009.00
2022-10-06T11:27:46.065Z,1009.03
2022-10-06T11:28:47.538Z,1009.06
2022-10-06T11:29:45.942Z,1009.05
2022-10-06T11:30:45.886Z,1009.05
2022-10-06T11:31:45.835Z,1009.05
2022-10-06T11:32:45.760Z,1009.03
2022-10-06T11:33:45.702Z,1009.01
2022-10-06T11:34:45.650Z,1009.06
2022-10-06T11:35:45.560Z,1009.06
2022-10-06T11:36:45.517Z,1009.09
2022-10-06T11:37:45.449Z,1009.03
2022-10-06T11:38:45.407Z,1009.05
2022-10-06T11:39:45.312Z,1009.04
2022-10-06T11:40:46.023Z,1009.06
2022-10-06T11:41:45.206Z,1009.00
2022-10-06T11:42:45.122Z,1009.02
2022-10-06T11:43:45.189Z,1009.02
2022-10-06T11:44:44.994Z,1009.01
2022-10-06T11:45:44.970Z,1009.01
2022-10-06T11:46:45.407Z,1008.98
2022-10-06T11:47:44.833Z,1008.98
2022-10-06T11:48:44.747Z,1008.98
2022-10-06T11:49:44.678Z,1008.94
2022-10-06T11:50:44.648Z,1008.96
2022-10-06T11:51:44.559Z,1008.96
2022-10-06T11:52:45.331Z,1008.95
2022-10-06T11:53:44.457Z,1008.98
2022-10-06T11:54:44.468Z,1008.90
2022-10-06T11:55:44.630Z,1008.96
2022-10-06T11:56:44.299Z,1008.93
2022-10-06T11:57:44.189Z,1008.96
2022-10-06T11:58:45.686Z,1008.99
2022-10-06T11:59:44.066Z,1009.00
2022-10-06T12:00:44.034Z,1008.97
2022-10-06T12:01:44.063Z,1008.99
2022-10-06T12:02:44.041Z,1008.98
2022-10-06T12:03:43.836Z,1008.90
2022-10-06T12:04:43.767Z,1008.83
2022-10-06T12:05:59.186Z,1008.93
2022-10-06T12:06:43.627Z,1008.94
2022-10-06T12:07:43.569Z,1008.98